sensor_id;sensor_type;location;lat;lon;timestamp;temperature;humidity
22558;DHT22;11445;53.816;8.902;2022-12-18T00:01:38;-5.20;99.90
22558;DHT22;11445;53.816;8.902;2022-12-18T00:04:07;-5.20;99.90
22558;DHT22;11445;53.816;8.902;2022-12-18T00:06:35;-5.20;99.90
22558;DHT22;11445;53.816;8.902;2022-12-18T00:09:03;-5.20;99.90
22558;DHT22;11445;53.816;8.902;2022-12-18T00:11:30;-5.10;99.90
22558;DHT22;11445;53.816;8.902;2022-12-18T00:13:59;-5.20;99.90
22558;DHT22;11445;53.816;8.902;2022-12-18T00:16:27;-5.20;99.90
22558;DHT22;11445;53.816;8.902;2022-12-18T00:18:56;-5.20;99.90
22558;DHT22;11445;53.816;8.902;2022-12-18T00:21:26;-5.20;99.90
22558;DHT22;11445;53.816;8.902;2022-12-18T00:23:55;-5.20;99.90
22558;DHT22;11445;53.816;8.902;2022-12-18T00:26:25;-5.20;99.90
22558;DHT22;11445;53.816;8.902;2022-12-18T00:28:52;-5.20;99.90
22558;DHT22;11445;53.816;8.902;2022-12-18T00:31:22;-5.30;99.90
22558;DHT22;11445;53.816;8.902;2022-12-18T00:33:50;-5.30;99.90
22558;DHT22;11445;53.816;8.902;2022-12-18T00:36:19;-5.30;99.90
22558;DHT22;11445;53.816;8.902;2022-12-18T00:38:47;-5.30;99.90
22558;DHT22;11445;53.816;8.902;2022-12-18T00:41:17;-5.30;99.90
22558;DHT22;11445;53.816;8.902;2022-12-18T00:44:06;-5.30;99.90
22558;DHT22;11445;53.816;8.902;2022-12-18T00:46:33;-5.30;99.90
22558;DHT22;11445;53.816;8.902;2022-12-18T00:49:00;-5.30;99.90
22558;DHT22;11445;53.816;8.902;2022-12-18T00:51:27;-5.30;99.90
22558;DHT22;11445;53.816;8.902;2022-12-18T00:53:54;-5.40;99.90
22558;DHT22;11445;53.816;8.902;2022-12-18T00:56:23;-5.30;99.90
22558;DHT22;11445;53.816;8.902;2022-12-18T00:58:51;-5.30;99.90
22558;DHT22;11445;53.816;8.902;2022-12-18T01:01:18;-5.40;99.90
22558;DHT22;11445;53.816;8.902;2022-12-18T01:03:45;-5.40;99.90
22558;DHT22;11445;53.816;8.902;2022-12-18T01:06:14;-5.40;99.90
22558;DHT22;11445;53.816;8.902;2022-12-18T01:08:41;-5.40;99.90
22558;DHT22;11445;53.816;8.902;2022-12-18T01:11:10;-5.40;99.90
22558;DHT22;11445;53.816;8.902;2022-12-18T01:13:38;-5.40;99.90
22558;DHT22;11445;53.816;8.902;2022-12-18T01:16:06;-5.40;99.90
22558;DHT22;11445;53.816;8.902;2022-12-18T01:18:34;-5.40;99.90
22558;DHT22;11445;53.816;8.902;2022-12-18T01:21:06;-5.50;99.90
22558;DHT22;11445;53.816;8.902;2022-12-18T01:23:33;-5.50;99.90
22558;DHT22;11445;53.816;8.902;2022-12-18T01:26:04;-5.50;99.90
22558;DHT22;11445;53.816;8.902;2022-12-18T01:28:31;-5.50;99.90
22558;DHT22;11445;53.816;8.902;2022-12-18T01:31:11;-5.50;99.90
22558;DHT22;11445;53.816;8.902;2022-12-18T01:33:38;-5.50;99.90
22558;DHT22;11445;53.816;8.902;2022-12-18T01:36:06;-5.50;99.90
22558;DHT22;11445;53.816;8.902;2022-12-18T01:38:33;-5.50;99.90
22558;DHT22;11445;53.816;8.902;2022-12-18T01:41:00;-5.50;99.90
22558;DHT22;11445;53.816;8.902;2022-12-18T01:43:48;-5.60;99.90
22558;DHT22;11445;53.816;8.902;2022-12-18T01:46:20;-5.60;99.90
22558;DHT22;11445;53.816;8.902;2022-12-18T01:48:51;-5.50;99.90
22558;DHT22;11445;53.816;8.902;2022-12-18T01:51:19;-5.60;99.90
22558;DHT22;11445;53.816;8.902;2022-12-18T01:53:47;-5.60;99.90
22558;DHT22;11445;53.816;8.902;2022-12-18T01:56:16;-5.60;99.90
22558;DHT22;11445;53.816;8.902;2022-12-18T01:58:52;-5.60;99.90
22558;DHT22;11445;53.816;8.902;2022-12-18T02:01:23;-5.60;99.90
22558;DHT22;11445;53.816;8.902;2022-12-18T02:03:50;-5.60;99.90
22558;DHT22;11445;53.816;8.902;2022-12-18T02:06:22;-5.60;99.90
22558;DHT22;11445;53.816;8.902;2022-12-18T02:09:00;-5.60;99.90
22558;DHT22;11445;53.816;8.902;2022-12-18T02:11:37;-5.60;99.90
22558;DHT22;11445;53.816;8.902;2022-12-18T02:14:14;-5.70;99.90
22558;DHT22;11445;53.816;8.902;2022-12-18T02:16:49;-5.70;99.90
22558;DHT22;11445;53.816;8.902;2022-12-18T02:19:39;-5.70;99.90
22558;DHT22;11445;53.816;8.902;2022-12-18T02:22:21;-5.70;99.90
22558;DHT22;11445;53.816;8.902;2022-12-18T02:24:59;-5.70;99.90
22558;DHT22;11445;53.816;8.902;2022-12-18T02:27:30;-5.70;99.90
22558;DHT22;11445;53.816;8.902;2022-12-18T02:29:58;-5.70;99.90
22558;DHT22;11445;53.816;8.902;2022-12-18T02:32:27;-5.70;99.90
22558;DHT22;11445;53.816;8.902;2022-12-18T02:34:56;-5.70;99.90
22558;DHT22;11445;53.816;8.902;2022-12-18T02:37:25;-5.70;99.90
22558;DHT22;11445;53.816;8.902;2022-12-18T02:39:56;-5.70;99.90
22558;DHT22;11445;53.816;8.902;2022-12-18T02:42:24;-5.70;99.90
22558;DHT22;11445;53.816;8.902;2022-12-18T02:44:53;-5.70;99.90
22558;DHT22;11445;53.816;8.902;2022-12-18T02:47:26;-5.80;99.90
22558;DHT22;11445;53.816;8.902;2022-12-18T02:50:02;-5.80;99.90
22558;DHT22;11445;53.816;8.902;2022-12-18T02:52:34;-5.80;99.90
22558;DHT22;11445;53.816;8.902;2022-12-18T02:55:15;-5.80;99.90
22558;DHT22;11445;53.816;8.902;2022-12-18T02:57:48;-5.80;99.90
22558;DHT22;11445;53.816;8.902;2022-12-18T03:00:20;-5.90;99.90
22558;DHT22;11445;53.816;8.902;2022-12-18T03:02:53;-5.90;99.90
22558;DHT22;11445;53.816;8.902;2022-12-18T03:05:24;-5.90;99.90
22558;DHT22;11445;53.816;8.902;2022-12-18T03:07:57;-5.90;99.90
22558;DHT22;11445;53.816;8.902;2022-12-18T03:10:29;-5.80;99.90
22558;DHT22;11445;53.816;8.902;2022-12-18T03:13:02;-5.80;99.90
22558;DHT22;11445;53.816;8.902;2022-12-18T03:15:34;-5.80;99.90
22558;DHT22;11445;53.816;8.902;2022-12-18T03:18:05;-5.80;99.90
22558;DHT22;11445;53.816;8.902;2022-12-18T03:20:35;-5.80;99.90
22558;DHT22;11445;53.816;8.902;2022-12-18T03:23:07;-5.80;99.90
22558;DHT22;11445;53.816;8.902;2022-12-18T03:25:39;-5.90;99.90
22558;DHT22;11445;53.816;8.902;2022-12-18T03:28:12;-5.90;99.90
22558;DHT22;11445;53.816;8.902;2022-12-18T03:30:41;-5.90;99.90
22558;DHT22;11445;53.816;8.902;2022-12-18T03:33:14;-5.90;99.90
22558;DHT22;11445;53.816;8.902;2022-12-18T03:35:44;-5.90;99.90
22558;DHT22;11445;53.816;8.902;2022-12-18T03:38:11;-5.90;99.90
22558;DHT22;11445;53.816;8.902;2022-12-18T03:40:45;-5.90;99.90
22558;DHT22;11445;53.816;8.902;2022-12-18T03:43:23;-5.90;99.90
22558;DHT22;11445;53.816;8.902;2022-12-18T03:45:59;-5.90;99.90
22558;DHT22;11445;53.816;8.902;2022-12-18T03:48:31;-5.90;99.90
22558;DHT22;11445;53.816;8.902;2022-12-18T03:51:05;-5.90;99.90
22558;DHT22;11445;53.816;8.902;2022-12-18T03:53:38;-5.90;99.90
22558;DHT22;11445;53.816;8.902;2022-12-18T03:56:09;-5.90;99.90
22558;DHT22;11445;53.816;8.902;2022-12-18T03:58:38;-5.90;99.90
22558;DHT22;11445;53.816;8.902;2022-12-18T04:01:14;-5.90;99.90
22558;DHT22;11445;53.816;8.902;2022-12-18T04:03:42;-6.00;99.90
22558;DHT22;11445;53.816;8.902;2022-12-18T04:06:11;-5.90;99.90
22558;DHT22;11445;53.816;8.902;2022-12-18T04:08:38;-5.90;99.90
22558;DHT22;11445;53.816;8.902;2022-12-18T04:11:06;-5.90;99.90
22558;DHT22;11445;53.816;8.902;2022-12-18T04:13:35;-5.90;99.90
22558;DHT22;11445;53.816;8.902;2022-12-18T04:16:03;-5.90;99.90
22558;DHT22;11445;53.816;8.902;2022-12-18T04:18:31;-5.90;99.90
22558;DHT22;11445;53.816;8.902;2022-12-18T04:20:58;-5.90;99.90
22558;DHT22;11445;53.816;8.902;2022-12-18T04:23:25;-5.90;99.90
22558;DHT22;11445;53.816;8.902;2022-12-18T04:25:52;-5.90;99.90
22558;DHT22;11445;53.816;8.902;2022-12-18T04:28:19;-5.90;99.90
22558;DHT22;11445;53.816;8.902;2022-12-18T04:30:49;-5.90;99.90
22558;DHT22;11445;53.816;8.902;2022-12-18T04:33:16;-5.90;99.90
22558;DHT22;11445;53.816;8.902;2022-12-18T04:35:45;-5.90;99.90
22558;DHT22;11445;53.816;8.902;2022-12-18T04:38:12;-5.90;99.90
22558;DHT22;11445;53.816;8.902;2022-12-18T04:40:39;-5.90;99.90
22558;DHT22;11445;53.816;8.902;2022-12-18T04:43:06;-5.90;99.90
22558;DHT22;11445;53.816;8.902;2022-12-18T04:45:33;-5.90;99.90
22558;DHT22;11445;53.816;8.902;2022-12-18T04:48:01;-5.80;99.90
22558;DHT22;11445;53.816;8.902;2022-12-18T04:50:28;-5.90;99.90
22558;DHT22;11445;53.816;8.902;2022-12-18T04:52:57;-5.80;99.90
22558;DHT22;11445;53.816;8.902;2022-12-18T04:55:27;-5.80;99.90
22558;DHT22;11445;53.816;8.902;2022-12-18T04:57:54;-5.80;99.90
22558;DHT22;11445;53.816;8.902;2022-12-18T05:00:21;-5.90;99.90
22558;DHT22;11445;53.816;8.902;2022-12-18T05:02:48;-5.90;99.90
22558;DHT22;11445;53.816;8.902;2022-12-18T05:05:15;-5.90;99.90
22558;DHT22;11445;53.816;8.902;2022-12-18T05:07:42;-5.90;99.90
22558;DHT22;11445;53.816;8.902;2022-12-18T05:10:11;-5.90;99.90
22558;DHT22;11445;53.816;8.902;2022-12-18T05:12:38;-5.90;99.90
22558;DHT22;11445;53.816;8.902;2022-12-18T05:15:24;-5.90;99.90
22558;DHT22;11445;53.816;8.902;2022-12-18T05:17:51;-5.90;99.90
22558;DHT22;11445;53.816;8.902;2022-12-18T05:20:18;-5.90;99.90
22558;DHT22;11445;53.816;8.902;2022-12-18T05:22:45;-5.90;99.90
22558;DHT22;11445;53.816;8.902;2022-12-18T05:25:13;-5.90;99.90
22558;DHT22;11445;53.816;8.902;2022-12-18T05:27:40;-5.90;99.90
22558;DHT22;11445;53.816;8.902;2022-12-18T05:30:08;-5.90;99.90
22558;DHT22;11445;53.816;8.902;2022-12-18T05:32:35;-5.90;99.90
22558;DHT22;11445;53.816;8.902;2022-12-18T05:35:03;-6.00;99.90
22558;DHT22;11445;53.816;8.902;2022-12-18T05:37:30;-6.00;99.90
22558;DHT22;11445;53.816;8.902;2022-12-18T05:39:57;-6.00;99.90
22558;DHT22;11445;53.816;8.902;2022-12-18T05:42:26;-6.00;99.90
22558;DHT22;11445;53.816;8.902;2022-12-18T05:44:53;-6.10;99.90
22558;DHT22;11445;53.816;8.902;2022-12-18T05:47:20;-6.10;99.90
22558;DHT22;11445;53.816;8.902;2022-12-18T05:49:47;-6.00;99.90
22558;DHT22;11445;53.816;8.902;2022-12-18T05:52:14;-6.10;99.90
22558;DHT22;11445;53.816;8.902;2022-12-18T05:54:41;-6.00;99.90
22558;DHT22;11445;53.816;8.902;2022-12-18T05:57:08;-6.00;99.90
22558;DHT22;11445;53.816;8.902;2022-12-18T05:59:37;-6.00;99.90
22558;DHT22;11445;53.816;8.902;2022-12-18T06:02:04;-6.00;99.90
22558;DHT22;11445;53.816;8.902;2022-12-18T06:04:31;-6.00;99.90
22558;DHT22;11445;53.816;8.902;2022-12-18T06:06:58;-6.00;99.90
22558;DHT22;11445;53.816;8.902;2022-12-18T06:09:32;-6.00;99.90
22558;DHT22;11445;53.816;8.902;2022-12-18T06:12:00;-6.10;99.90
22558;DHT22;11445;53.816;8.902;2022-12-18T06:14:27;-6.10;99.90
22558;DHT22;11445;53.816;8.902;2022-12-18T06:16:55;-6.10;99.90
22558;DHT22;11445;53.816;8.902;2022-12-18T06:19:22;-6.10;99.90
22558;DHT22;11445;53.816;8.902;2022-12-18T06:21:49;-6.00;99.90
22558;DHT22;11445;53.816;8.902;2022-12-18T06:24:16;-6.00;99.90
22558;DHT22;11445;53.816;8.902;2022-12-18T06:26:43;-6.00;99.90
22558;DHT22;11445;53.816;8.902;2022-12-18T06:29:10;-6.00;99.90
22558;DHT22;11445;53.816;8.902;2022-12-18T06:31:37;-6.00;99.90
22558;DHT22;11445;53.816;8.902;2022-12-18T06:34:06;-6.00;99.90
22558;DHT22;11445;53.816;8.902;2022-12-18T06:36:33;-6.00;99.90
22558;DHT22;11445;53.816;8.902;2022-12-18T06:39:00;-6.00;99.90
22558;DHT22;11445;53.816;8.902;2022-12-18T06:41:27;-6.10;99.90
22558;DHT22;11445;53.816;8.902;2022-12-18T06:43:54;-6.10;99.90
22558;DHT22;11445;53.816;8.902;2022-12-18T06:46:21;-6.10;99.90
22558;DHT22;11445;53.816;8.902;2022-12-18T06:48:48;-6.10;99.90
22558;DHT22;11445;53.816;8.902;2022-12-18T06:51:19;-6.10;99.90
22558;DHT22;11445;53.816;8.902;2022-12-18T06:53:46;-6.10;99.90
22558;DHT22;11445;53.816;8.902;2022-12-18T06:56:13;-6.10;99.90
22558;DHT22;11445;53.816;8.902;2022-12-18T06:58:40;-6.10;99.90
22558;DHT22;11445;53.816;8.902;2022-12-18T07:01:09;-6.10;99.90
22558;DHT22;11445;53.816;8.902;2022-12-18T07:03:37;-6.10;99.90
22558;DHT22;11445;53.816;8.902;2022-12-18T07:06:04;-6.20;99.90
22558;DHT22;11445;53.816;8.902;2022-12-18T07:08:33;-6.20;99.90
22558;DHT22;11445;53.816;8.902;2022-12-18T07:11:04;-6.20;99.90
22558;DHT22;11445;53.816;8.902;2022-12-18T07:13:31;-6.20;99.90
22558;DHT22;11445;53.816;8.902;2022-12-18T07:16:04;-6.20;99.90
22558;DHT22;11445;53.816;8.902;2022-12-18T07:18:31;-6.20;99.90
22558;DHT22;11445;53.816;8.902;2022-12-18T07:21:03;-6.10;99.90
22558;DHT22;11445;53.816;8.902;2022-12-18T07:23:32;-6.10;99.90
22558;DHT22;11445;53.816;8.902;2022-12-18T07:26:01;-6.10;99.90
22558;DHT22;11445;53.816;8.902;2022-12-18T07:28:29;-6.20;99.90
22558;DHT22;11445;53.816;8.902;2022-12-18T07:30:56;-6.10;99.90
22558;DHT22;11445;53.816;8.902;2022-12-18T07:33:24;-6.10;99.90
22558;DHT22;11445;53.816;8.902;2022-12-18T07:35:51;-6.10;99.90
22558;DHT22;11445;53.816;8.902;2022-12-18T07:38:18;-6.10;99.90
22558;DHT22;11445;53.816;8.902;2022-12-18T07:40:46;-6.10;99.90
22558;DHT22;11445;53.816;8.902;2022-12-18T07:43:13;-6.10;99.90
22558;DHT22;11445;53.816;8.902;2022-12-18T07:45:41;-6.10;99.90
22558;DHT22;11445;53.816;8.902;2022-12-18T07:48:08;-6.10;99.90
22558;DHT22;11445;53.816;8.902;2022-12-18T07:50:36;-6.20;99.90
22558;DHT22;11445;53.816;8.902;2022-12-18T07:53:03;-6.20;99.90
22558;DHT22;11445;53.816;8.902;2022-12-18T07:55:30;-6.20;99.90
22558;DHT22;11445;53.816;8.902;2022-12-18T07:58:02;-6.20;99.90
22558;DHT22;11445;53.816;8.902;2022-12-18T08:00:29;-6.20;99.90
22558;DHT22;11445;53.816;8.902;2022-12-18T08:02:56;-6.10;99.90
22558;DHT22;11445;53.816;8.902;2022-12-18T08:05:23;-6.20;99.90
22558;DHT22;11445;53.816;8.902;2022-12-18T08:07:50;-6.10;99.90
22558;DHT22;11445;53.816;8.902;2022-12-18T08:10:18;-6.10;99.90
22558;DHT22;11445;53.816;8.902;2022-12-18T08:12:45;-6.10;99.90
22558;DHT22;11445;53.816;8.902;2022-12-18T08:15:13;-6.10;99.90
22558;DHT22;11445;53.816;8.902;2022-12-18T08:17:40;-6.00;99.90
22558;DHT22;11445;53.816;8.902;2022-12-18T08:20:08;-6.00;99.90
22558;DHT22;11445;53.816;8.902;2022-12-18T08:22:38;-6.00;99.90
22558;DHT22;11445;53.816;8.902;2022-12-18T08:25:06;-5.90;99.90
22558;DHT22;11445;53.816;8.902;2022-12-18T08:27:33;-5.90;99.90
22558;DHT22;11445;53.816;8.902;2022-12-18T08:30:00;-5.80;99.90
22558;DHT22;11445;53.816;8.902;2022-12-18T08:32:29;-5.80;99.90
22558;DHT22;11445;53.816;8.902;2022-12-18T08:34:58;-5.70;99.90
22558;DHT22;11445;53.816;8.902;2022-12-18T08:37:25;-5.70;99.90
22558;DHT22;11445;53.816;8.902;2022-12-18T08:39:52;-5.70;99.90
22558;DHT22;11445;53.816;8.902;2022-12-18T08:42:19;-5.70;99.90
22558;DHT22;11445;53.816;8.902;2022-12-18T08:45:06;-5.70;99.90
22558;DHT22;11445;53.816;8.902;2022-12-18T08:47:35;-5.60;99.90
22558;DHT22;11445;53.816;8.902;2022-12-18T08:50:02;-5.50;99.90
22558;DHT22;11445;53.816;8.902;2022-12-18T08:52:31;-5.50;99.90
22558;DHT22;11445;53.816;8.902;2022-12-18T08:54:58;-5.40;99.90
22558;DHT22;11445;53.816;8.902;2022-12-18T08:57:26;-5.40;99.90
22558;DHT22;11445;53.816;8.902;2022-12-18T08:59:52;-5.30;99.90
22558;DHT22;11445;53.816;8.902;2022-12-18T09:02:19;-5.30;99.90
22558;DHT22;11445;53.816;8.902;2022-12-18T09:04:48;-5.30;99.90
22558;DHT22;11445;53.816;8.902;2022-12-18T09:07:15;-5.20;99.90
22558;DHT22;11445;53.816;8.902;2022-12-18T09:09:42;-5.10;99.90
22558;DHT22;11445;53.816;8.902;2022-12-18T09:12:09;-5.10;99.90
22558;DHT22;11445;53.816;8.902;2022-12-18T09:14:36;-5.10;99.90
22558;DHT22;11445;53.816;8.902;2022-12-18T09:17:03;-5.00;99.90
22558;DHT22;11445;53.816;8.902;2022-12-18T09:19:30;-5.00;99.90
22558;DHT22;11445;53.816;8.902;2022-12-18T09:21:59;-4.90;99.90
22558;DHT22;11445;53.816;8.902;2022-12-18T09:24:26;-4.90;99.90
22558;DHT22;11445;53.816;8.902;2022-12-18T09:26:53;-4.90;99.90
22558;DHT22;11445;53.816;8.902;2022-12-18T09:29:21;-4.80;99.90
22558;DHT22;11445;53.816;8.902;2022-12-18T09:31:48;-4.80;99.90
22558;DHT22;11445;53.816;8.902;2022-12-18T09:34:16;-4.70;99.90
22558;DHT22;11445;53.816;8.902;2022-12-18T09:36:43;-4.70;99.90
22558;DHT22;11445;53.816;8.902;2022-12-18T09:39:11;-4.60;99.90
22558;DHT22;11445;53.816;8.902;2022-12-18T09:41:42;-4.60;99.90
22558;DHT22;11445;53.816;8.902;2022-12-18T09:44:16;-4.50;99.90
22558;DHT22;11445;53.816;8.902;2022-12-18T09:46:49;-4.50;99.90
22558;DHT22;11445;53.816;8.902;2022-12-18T09:49:19;-4.50;99.90
22558;DHT22;11445;53.816;8.902;2022-12-18T09:51:52;-4.40;99.90
22558;DHT22;11445;53.816;8.902;2022-12-18T09:54:26;-4.40;99.90
22558;DHT22;11445;53.816;8.902;2022-12-18T09:56:56;-4.40;99.90
22558;DHT22;11445;53.816;8.902;2022-12-18T09:59:25;-4.30;99.90
22558;DHT22;11445;53.816;8.902;2022-12-18T10:01:53;-4.30;99.90
22558;DHT22;11445;53.816;8.902;2022-12-18T10:04:20;-4.30;99.90
22558;DHT22;11445;53.816;8.902;2022-12-18T10:06:52;-4.20;99.90
22558;DHT22;11445;53.816;8.902;2022-12-18T10:09:30;-4.10;99.90
22558;DHT22;11445;53.816;8.902;2022-12-18T10:12:05;-4.10;99.90
22558;DHT22;11445;53.816;8.902;2022-12-18T10:14:42;-4.00;99.90
22558;DHT22;11445;53.816;8.902;2022-12-18T10:17:20;-4.00;99.90
22558;DHT22;11445;53.816;8.902;2022-12-18T10:19:52;-4.00;99.90
22558;DHT22;11445;53.816;8.902;2022-12-18T10:22:38;-3.90;99.90
22558;DHT22;11445;53.816;8.902;2022-12-18T10:25:18;-3.90;99.90
22558;DHT22;11445;53.816;8.902;2022-12-18T10:27:47;-3.80;99.90
22558;DHT22;11445;53.816;8.902;2022-12-18T10:30:17;-3.70;99.90
22558;DHT22;11445;53.816;8.902;2022-12-18T10:32:44;-3.70;99.90
22558;DHT22;11445;53.816;8.902;2022-12-18T10:35:18;-3.70;99.90
22558;DHT22;11445;53.816;8.902;2022-12-18T10:38:07;-3.70;99.90
22558;DHT22;11445;53.816;8.902;2022-12-18T10:40:53;-3.70;99.90
22558;DHT22;11445;53.816;8.902;2022-12-18T10:43:23;-3.70;99.90
22558;DHT22;11445;53.816;8.902;2022-12-18T10:46:04;-3.70;99.90
22558;DHT22;11445;53.816;8.902;2022-12-18T10:48:33;-3.60;99.90
22558;DHT22;11445;53.816;8.902;2022-12-18T10:51:02;-3.60;99.90
22558;DHT22;11445;53.816;8.902;2022-12-18T10:53:31;-3.60;99.90
22558;DHT22;11445;53.816;8.902;2022-12-18T10:56:04;-3.60;99.90
22558;DHT22;11445;53.816;8.902;2022-12-18T10:58:34;-3.60;99.90
22558;DHT22;11445;53.816;8.902;2022-12-18T11:01:05;-3.60;99.90
22558;DHT22;11445;53.816;8.902;2022-12-18T11:03:34;-3.50;99.90
22558;DHT22;11445;53.816;8.902;2022-12-18T11:06:04;-3.50;99.90
22558;DHT22;11445;53.816;8.902;2022-12-18T11:08:32;-3.50;99.90
22558;DHT22;11445;53.816;8.902;2022-12-18T11:10:59;-3.40;99.90
22558;DHT22;11445;53.816;8.902;2022-12-18T11:13:29;-3.40;99.90
22558;DHT22;11445;53.816;8.902;2022-12-18T11:15:57;-3.40;99.90
22558;DHT22;11445;53.816;8.902;2022-12-18T11:18:27;-3.40;99.90
22558;DHT22;11445;53.816;8.902;2022-12-18T11:20:57;-3.40;99.90
22558;DHT22;11445;53.816;8.902;2022-12-18T11:23:26;-3.30;99.90
22558;DHT22;11445;53.816;8.902;2022-12-18T11:25:56;-3.30;99.90
22558;DHT22;11445;53.816;8.902;2022-12-18T11:28:35;-3.20;99.90
22558;DHT22;11445;53.816;8.902;2022-12-18T11:31:15;-3.20;99.90
22558;DHT22;11445;53.816;8.902;2022-12-18T11:33:46;-3.10;99.90
22558;DHT22;11445;53.816;8.902;2022-12-18T11:36:14;-3.10;99.90
22558;DHT22;11445;53.816;8.902;2022-12-18T11:38:44;-3.10;99.90
22558;DHT22;11445;53.816;8.902;2022-12-18T11:41:21;-3.00;99.90
22558;DHT22;11445;53.816;8.902;2022-12-18T11:44:14;-3.00;99.90
22558;DHT22;11445;53.816;8.902;2022-12-18T11:46:47;-3.00;99.90
22558;DHT22;11445;53.816;8.902;2022-12-18T11:49:21;-3.00;99.90
22558;DHT22;11445;53.816;8.902;2022-12-18T11:51:53;-3.00;99.90
22558;DHT22;11445;53.816;8.902;2022-12-18T11:54:22;-2.90;99.90
22558;DHT22;11445;53.816;8.902;2022-12-18T11:56:53;-2.90;99.90
22558;DHT22;11445;53.816;8.902;2022-12-18T11:59:30;-2.90;99.90
22558;DHT22;11445;53.816;8.902;2022-12-18T12:02:11;-2.90;99.90
22558;DHT22;11445;53.816;8.902;2022-12-18T12:05:02;-2.90;99.90
22558;DHT22;11445;53.816;8.902;2022-12-18T12:07:39;-2.80;99.90
22558;DHT22;11445;53.816;8.902;2022-12-18T12:10:22;-2.80;99.90
22558;DHT22;11445;53.816;8.902;2022-12-18T12:12:55;-2.80;99.90
22558;DHT22;11445;53.816;8.902;2022-12-18T12:15:34;-2.80;99.90
22558;DHT22;11445;53.816;8.902;2022-12-18T12:18:08;-2.70;99.90
22558;DHT22;11445;53.816;8.902;2022-12-18T12:20:47;-2.70;99.90
22558;DHT22;11445;53.816;8.902;2022-12-18T12:23:19;-2.60;99.90
22558;DHT22;11445;53.816;8.902;2022-12-18T12:25:52;-2.60;99.90
22558;DHT22;11445;53.816;8.902;2022-12-18T12:28:34;-2.50;99.90
22558;DHT22;11445;53.816;8.902;2022-12-18T12:31:13;-2.50;99.90
22558;DHT22;11445;53.816;8.902;2022-12-18T12:33:51;-2.40;99.90
22558;DHT22;11445;53.816;8.902;2022-12-18T12:36:27;-2.40;99.90
22558;DHT22;11445;53.816;8.902;2022-12-18T12:38:59;-2.30;99.90
22558;DHT22;11445;53.816;8.902;2022-12-18T12:41:31;-2.10;99.90
22558;DHT22;11445;53.816;8.902;2022-12-18T12:44:19;-2.00;99.90
22558;DHT22;11445;53.816;8.902;2022-12-18T12:46:49;-1.90;99.90
22558;DHT22;11445;53.816;8.902;2022-12-18T12:49:25;-1.80;99.90
22558;DHT22;11445;53.816;8.902;2022-12-18T12:51:57;-1.80;99.90
22558;DHT22;11445;53.816;8.902;2022-12-18T12:54:26;-1.90;99.90
22558;DHT22;11445;53.816;8.902;2022-12-18T12:57:02;-1.90;99.90
22558;DHT22;11445;53.816;8.902;2022-12-18T12:59:37;-2.00;99.90
22558;DHT22;11445;53.816;8.902;2022-12-18T13:02:18;-2.10;99.90
22558;DHT22;11445;53.816;8.902;2022-12-18T13:04:49;-2.10;99.90
22558;DHT22;11445;53.816;8.902;2022-12-18T13:07:23;-2.10;99.90
22558;DHT22;11445;53.816;8.902;2022-12-18T13:12:56;-2.20;99.90
22558;DHT22;11445;53.816;8.902;2022-12-18T13:15:32;-2.20;99.90
22558;DHT22;11445;53.816;8.902;2022-12-18T13:18:10;-2.20;99.90
22558;DHT22;11445;53.816;8.902;2022-12-18T13:20:40;-2.20;99.90
22558;DHT22;11445;53.816;8.902;2022-12-18T13:23:26;-2.20;99.90
22558;DHT22;11445;53.816;8.902;2022-12-18T13:25:54;-2.20;99.90
22558;DHT22;11445;53.816;8.902;2022-12-18T13:28:23;-2.20;99.90
22558;DHT22;11445;53.816;8.902;2022-12-18T13:31:10;-2.20;99.90
22558;DHT22;11445;53.816;8.902;2022-12-18T13:33:42;-2.20;99.90
22558;DHT22;11445;53.816;8.902;2022-12-18T13:36:15;-2.20;99.90
22558;DHT22;11445;53.816;8.902;2022-12-18T13:38:43;-2.20;99.90
22558;DHT22;11445;53.816;8.902;2022-12-18T13:41:25;-2.20;99.90
22558;DHT22;11445;53.816;8.902;2022-12-18T13:43:53;-2.20;99.90
22558;DHT22;11445;53.816;8.902;2022-12-18T13:46:26;-2.20;99.90
22558;DHT22;11445;53.816;8.902;2022-12-18T13:49:01;-2.20;99.90
22558;DHT22;11445;53.816;8.902;2022-12-18T13:51:29;-2.20;99.90
22558;DHT22;11445;53.816;8.902;2022-12-18T13:54:00;-1.90;99.90
22558;DHT22;11445;53.816;8.902;2022-12-18T13:56:30;-1.80;99.90
22558;DHT22;11445;53.816;8.902;2022-12-18T13:59:13;-1.80;99.90
22558;DHT22;11445;53.816;8.902;2022-12-18T14:01:48;-1.80;99.90
22558;DHT22;11445;53.816;8.902;2022-12-18T14:04:23;-1.90;99.90
22558;DHT22;11445;53.816;8.902;2022-12-18T14:06:53;-2.00;99.90
22558;DHT22;11445;53.816;8.902;2022-12-18T14:09:26;-2.00;99.90
22558;DHT22;11445;53.816;8.902;2022-12-18T14:11:53;-2.10;99.90
22558;DHT22;11445;53.816;8.902;2022-12-18T14:14:44;-2.10;99.90
22558;DHT22;11445;53.816;8.902;2022-12-18T14:17:13;-2.20;99.90
22558;DHT22;11445;53.816;8.902;2022-12-18T14:19:47;-2.20;99.90
22558;DHT22;11445;53.816;8.902;2022-12-18T14:22:16;-2.20;99.90
22558;DHT22;11445;53.816;8.902;2022-12-18T14:24:44;-2.30;99.90
22558;DHT22;11445;53.816;8.902;2022-12-18T14:27:22;-2.30;99.90
22558;DHT22;11445;53.816;8.902;2022-12-18T14:29:49;-2.30;99.90
22558;DHT22;11445;53.816;8.902;2022-12-18T14:32:17;-2.40;99.90
22558;DHT22;11445;53.816;8.902;2022-12-18T14:34:47;-2.40;99.90
22558;DHT22;11445;53.816;8.902;2022-12-18T14:37:17;-2.40;99.90
22558;DHT22;11445;53.816;8.902;2022-12-18T14:39:58;-2.40;99.90
22558;DHT22;11445;53.816;8.902;2022-12-18T14:42:31;-2.40;99.90
22558;DHT22;11445;53.816;8.902;2022-12-18T14:45:32;-2.30;99.90
22558;DHT22;11445;53.816;8.902;2022-12-18T14:47:59;-2.20;99.90
22558;DHT22;11445;53.816;8.902;2022-12-18T14:50:28;-2.20;99.90
22558;DHT22;11445;53.816;8.902;2022-12-18T14:52:55;-2.20;99.90
22558;DHT22;11445;53.816;8.902;2022-12-18T14:55:22;-2.30;99.90
22558;DHT22;11445;53.816;8.902;2022-12-18T14:57:50;-2.30;99.90
22558;DHT22;11445;53.816;8.902;2022-12-18T15:00:21;-2.40;99.90
22558;DHT22;11445;53.816;8.902;2022-12-18T15:02:50;-2.50;99.90
22558;DHT22;11445;53.816;8.902;2022-12-18T15:05:20;-2.50;99.90
22558;DHT22;11445;53.816;8.902;2022-12-18T15:07:50;-2.50;99.90
22558;DHT22;11445;53.816;8.902;2022-12-18T15:10:19;-2.60;99.90
22558;DHT22;11445;53.816;8.902;2022-12-18T15:12:48;-2.60;99.90
22558;DHT22;11445;53.816;8.902;2022-12-18T15:15:47;-2.60;99.90
22558;DHT22;11445;53.816;8.902;2022-12-18T15:18:15;-2.60;99.90
22558;DHT22;11445;53.816;8.902;2022-12-18T15:20:44;-2.60;99.90
22558;DHT22;11445;53.816;8.902;2022-12-18T15:23:17;-2.60;99.90
22558;DHT22;11445;53.816;8.902;2022-12-18T15:25:46;-2.60;99.90
22558;DHT22;11445;53.816;8.902;2022-12-18T15:28:19;-2.60;99.90
22558;DHT22;11445;53.816;8.902;2022-12-18T15:31:01;-2.50;99.90
22558;DHT22;11445;53.816;8.902;2022-12-18T15:33:31;-2.50;99.90
22558;DHT22;11445;53.816;8.902;2022-12-18T15:36:00;-2.50;99.90
22558;DHT22;11445;53.816;8.902;2022-12-18T15:38:29;-2.50;99.90
22558;DHT22;11445;53.816;8.902;2022-12-18T15:40:57;-2.40;99.90
22558;DHT22;11445;53.816;8.902;2022-12-18T15:43:24;-2.40;99.90
22558;DHT22;11445;53.816;8.902;2022-12-18T15:46:01;-2.40;99.90
22558;DHT22;11445;53.816;8.902;2022-12-18T15:48:28;-2.40;99.90
22558;DHT22;11445;53.816;8.902;2022-12-18T15:50:56;-2.40;99.90
22558;DHT22;11445;53.816;8.902;2022-12-18T15:53:26;-2.50;99.90
22558;DHT22;11445;53.816;8.902;2022-12-18T15:55:56;-2.50;99.90